createdAt,value
2019-02-07T00:00:43.693Z,4.80
2019-02-07T00:03:11.228Z,4.50
2019-02-07T00:05:38.705Z,4.37
2019-02-07T00:08:06.172Z,4.60
2019-02-07T00:10:33.612Z,4.40
2019-02-07T00:13:01.069Z,4.43
2019-02-07T00:15:28.498Z,4.70
2019-02-07T00:17:56.048Z,4.30
2019-02-07T00:20:23.520Z,4.70
2019-02-07T00:22:50.917Z,4.20
2019-02-07T00:25:18.331Z,4.43
2019-02-07T00:27:45.935Z,4.07
2019-02-07T00:30:14.811Z,4.07
2019-02-07T00:32:42.256Z,4.00
2019-02-07T00:35:10.009Z,4.43
2019-02-07T00:37:37.469Z,4.70
2019-02-07T00:40:08.133Z,4.53
2019-02-07T00:42:35.559Z,3.93
2019-02-07T00:45:03.975Z,4.20
2019-02-07T00:47:31.406Z,4.23
2019-02-07T00:49:58.911Z,4.13
2019-02-07T00:52:26.305Z,4.73
2019-02-07T00:54:53.745Z,4.27
2019-02-07T00:57:21.124Z,4.47
2019-02-07T00:59:48.548Z,4.43
2019-02-07T01:02:16.047Z,3.97
2019-02-07T01:04:43.565Z,4.73
2019-02-07T01:07:10.989Z,4.53
2019-02-07T01:09:38.349Z,4.23
2019-02-07T01:12:05.945Z,4.27
2019-02-07T01:14:33.352Z,4.37
2019-02-07T01:17:00.745Z,4.00
2019-02-07T01:19:28.452Z,4.07
2019-02-07T01:21:55.845Z,3.90
2019-02-07T01:24:23.267Z,3.93
2019-02-07T01:26:50.665Z,3.90
2019-02-07T01:29:18.387Z,4.13
2019-02-07T01:31:45.825Z,4.00
2019-02-07T01:34:13.276Z,3.70
2019-02-07T01:36:42.548Z,3.80
2019-02-07T01:39:10.107Z,3.73
2019-02-07T01:41:37.469Z,3.47
2019-02-07T01:44:05.050Z,3.90
2019-02-07T01:46:32.505Z,3.70
2019-02-07T01:48:59.925Z,3.50
2019-02-07T01:51:27.332Z,3.40
2019-02-07T01:53:54.941Z,3.53
2019-02-07T01:56:22.328Z,3.37
2019-02-07T01:58:49.751Z,3.50
2019-02-07T02:01:17.129Z,3.83
2019-02-07T02:03:44.526Z,3.57
2019-02-07T02:06:11.989Z,3.43
2019-02-07T02:08:39.393Z,3.13
2019-02-07T02:11:06.770Z,3.37
2019-02-07T02:13:34.225Z,3.43
2019-02-07T02:16:01.651Z,3.80
2019-02-07T02:18:29.050Z,3.77
2019-02-07T02:20:56.556Z,3.60
2019-02-07T02:23:23.999Z,3.43
2019-02-07T02:25:51.443Z,3.60
2019-02-07T02:28:18.833Z,3.37
2019-02-07T02:30:46.393Z,3.47
2019-02-07T02:33:13.787Z,3.20
2019-02-07T02:35:41.191Z,3.47
2019-02-07T02:38:08.701Z,3.30
2019-02-07T02:40:36.144Z,3.60
2019-02-07T02:43:03.690Z,3.50
2019-02-07T02:45:37.644Z,3.10
2019-02-07T02:48:00.653Z,3.67
2019-02-07T02:50:28.070Z,2.87
2019-02-07T02:52:55.457Z,3.13
2019-02-07T02:55:32.026Z,2.87
2019-02-07T02:57:59.503Z,3.37
2019-02-07T03:00:39.592Z,3.20
2019-02-07T03:03:35.528Z,3.37
2019-02-07T03:06:21.367Z,3.30
2019-02-07T03:09:14.572Z,2.83
2019-02-07T03:12:04.402Z,3.00
2019-02-07T03:14:44.202Z,3.10
2019-02-07T03:17:49.307Z,3.10
2019-02-07T03:20:45.166Z,2.90
2019-02-07T03:23:40.862Z,3.00
2019-02-07T03:26:30.853Z,3.17
2019-02-07T03:29:32.923Z,2.73
2019-02-07T03:32:31.863Z,2.80
2019-02-07T03:35:22.797Z,2.70
2019-02-07T03:38:15.566Z,2.93
2019-02-07T03:41:02.525Z,2.60
2019-02-07T03:43:58.084Z,2.80
2019-02-07T03:46:43.712Z,2.83
2019-02-07T03:49:26.126Z,2.70
2019-02-07T03:52:28.235Z,2.47
2019-02-07T03:55:17.443Z,2.77
2019-02-07T03:57:59.265Z,2.57
2019-02-07T04:00:49.237Z,2.63
2019-02-07T04:03:24.634Z,2.70
2019-02-07T04:06:17.540Z,2.50
2019-02-07T04:09:13.377Z,2.80
2019-02-07T04:11:58.949Z,2.60
2019-02-07T04:14:44.661Z,2.73
2019-02-07T04:17:40.604Z,2.80
2019-02-07T04:20:30.491Z,2.80
2019-02-07T04:23:35.517Z,2.40
2019-02-07T04:26:20.812Z,2.73
2019-02-07T04:28:53.810Z,3.30
2019-02-07T04:31:49.817Z,2.67
2019-02-07T04:34:39.337Z,2.33
2019-02-07T04:37:32.245Z,2.90
2019-02-07T04:40:19.174Z,2.87
2019-02-07T04:43:21.420Z,2.80
2019-02-07T04:46:04.473Z,3.20
2019-02-07T04:48:57.271Z,2.80
2019-02-07T04:51:42.958Z,2.83
2019-02-07T04:54:25.652Z,2.30
2019-02-07T04:57:03.897Z,2.80
2019-02-07T04:59:49.591Z,2.80
2019-02-07T05:02:34.924Z,2.67
2019-02-07T05:05:22.335Z,2.90
2019-02-07T05:08:15.256Z,2.90
2019-02-07T05:10:58.069Z,2.33
2019-02-07T05:13:47.840Z,2.70
2019-02-07T05:16:39.579Z,2.90
2019-02-07T05:19:37.444Z,2.50
2019-02-07T05:22:27.269Z,2.80
2019-02-07T05:25:12.537Z,2.40
2019-02-07T05:27:59.462Z,2.40
2019-02-07T05:30:58.600Z,2.50
2019-02-07T05:34:00.946Z,2.50
2019-02-07T05:36:48.118Z,2.87
2019-02-07T05:39:33.753Z,2.67
2019-02-07T05:42:19.358Z,2.40
2019-02-07T05:45:12.917Z,2.47
2019-02-07T05:48:00.280Z,2.10
2019-02-07T05:50:53.415Z,2.13
2019-02-07T05:53:40.138Z,2.40
2019-02-07T05:56:25.632Z,2.20
2019-02-07T05:59:11.406Z,2.47
2019-02-07T06:01:48.813Z,2.43
2019-02-07T06:04:26.425Z,2.50
2019-02-07T06:07:16.348Z,2.33
2019-02-07T06:10:02.198Z,2.33
2019-02-07T06:12:58.019Z,2.80
2019-02-07T06:15:38.233Z,2.47
2019-02-07T06:18:31.137Z,2.60
2019-02-07T06:21:15.256Z,2.40
2019-02-07T06:23:50.109Z,2.60
2019-02-07T06:26:29.800Z,2.40
2019-02-07T06:29:16.784Z,2.30
2019-02-07T06:32:21.948Z,2.60
2019-02-07T06:35:20.813Z,2.73
2019-02-07T06:38:16.517Z,2.30
2019-02-07T06:41:05.272Z,2.40
2019-02-07T06:43:51.072Z,2.50
2019-02-07T06:46:46.900Z,2.63
2019-02-07T06:49:36.368Z,2.23
2019-02-07T06:52:38.372Z,2.53
2019-02-07T06:55:25.108Z,2.50
2019-02-07T06:58:11.426Z,2.70
2019-02-07T07:01:04.463Z,2.63
2019-02-07T07:04:09.317Z,2.23
2019-02-07T07:06:56.261Z,2.60
2019-02-07T07:09:43.245Z,2.40
2019-02-07T07:12:30.186Z,2.50
2019-02-07T07:15:19.937Z,2.50
2019-02-07T07:18:22.019Z,2.83
2019-02-07T07:21:18.105Z,3.20
2019-02-07T07:24:03.529Z,2.80
2019-02-07T07:27:02.610Z,2.70
2019-02-07T07:29:48.199Z,3.40
2019-02-07T07:32:35.172Z,3.87
2019-02-07T07:35:27.717Z,3.53
2019-02-07T07:38:06.541Z,3.63
2019-02-07T07:40:52.123Z,3.30
2019-02-07T07:43:50.748Z,3.60
2019-02-07T07:46:41.959Z,4.17
2019-02-07T07:49:47.401Z,3.40
2019-02-07T07:52:40.488Z,3.30
2019-02-07T07:55:26.221Z,3.07
2019-02-07T07:58:11.538Z,3.40
2019-02-07T08:00:58.424Z,3.07
2019-02-07T08:03:54.625Z,3.10
2019-02-07T08:06:41.540Z,2.97
2019-02-07T08:09:45.389Z,2.83
2019-02-07T08:12:32.317Z,2.87
2019-02-07T08:15:18.585Z,3.27
2019-02-07T08:18:11.373Z,3.17
2019-02-07T08:20:57.235Z,3.00
2019-02-07T08:23:53.116Z,3.40
2019-02-07T08:26:58.607Z,3.47
2019-02-07T08:29:54.301Z,3.80
2019-02-07T08:32:56.385Z,3.67
2019-02-07T08:35:46.663Z,3.27
2019-02-07T08:38:45.365Z,3.73
2019-02-07T08:41:41.799Z,3.27
2019-02-07T08:44:44.117Z,3.57
2019-02-07T08:47:33.720Z,3.30
2019-02-07T08:50:38.928Z,2.93
2019-02-07T08:53:25.813Z,3.07
2019-02-07T08:56:07.410Z,3.70
2019-02-07T08:58:56.461Z,3.70
2019-02-07T09:01:51.520Z,3.83
2019-02-07T09:04:44.267Z,3.83
2019-02-07T09:07:36.190Z,3.70
2019-02-07T09:10:22.081Z,3.30
2019-02-07T09:13:03.554Z,3.10
2019-02-07T09:15:49.000Z,3.40
2019-02-07T09:18:34.706Z,3.20
2019-02-07T09:21:30.596Z,3.37
2019-02-07T09:24:16.237Z,3.20
2019-02-07T09:27:03.144Z,3.30
2019-02-07T09:29:48.649Z,3.33
2019-02-07T09:32:35.596Z,3.20
2019-02-07T09:35:22.989Z,3.40
2019-02-07T09:38:08.509Z,3.70
2019-02-07T09:40:54.123Z,3.23
2019-02-07T09:43:45.532Z,3.10
2019-02-07T09:46:32.550Z,3.00
2019-02-07T09:49:19.491Z,3.70
2019-02-07T09:52:05.247Z,3.30
2019-02-07T09:54:52.185Z,3.40
2019-02-07T09:57:43.872Z,3.33
2019-02-07T10:00:44.325Z,2.90
2019-02-07T10:03:18.707Z,3.87
2019-02-07T10:06:08.208Z,3.20
2019-02-07T10:09:01.296Z,3.07
2019-02-07T10:11:51.063Z,3.10
2019-02-07T10:14:27.571Z,3.00
2019-02-07T10:17:13.015Z,3.57
2019-02-07T10:20:04.945Z,3.00
2019-02-07T10:22:50.756Z,3.30
2019-02-07T10:25:40.495Z,3.33
2019-02-07T10:28:27.492Z,3.17
2019-02-07T10:31:20.417Z,3.37
2019-02-07T10:34:07.378Z,2.83
2019-02-07T10:36:53.006Z,3.00
2019-02-07T10:39:34.799Z,3.23
2019-02-07T10:42:20.027Z,2.80
2019-02-07T10:45:06.263Z,2.83
2019-02-07T10:47:49.254Z,3.03
2019-02-07T10:50:51.643Z,3.20
2019-02-07T10:53:35.083Z,2.97
2019-02-07T10:56:37.100Z,2.73
2019-02-07T10:59:26.910Z,3.10
2019-02-07T11:02:13.868Z,2.60
2019-02-07T11:05:06.750Z,3.97
2019-02-07T11:07:52.280Z,3.57
2019-02-07T11:10:37.805Z,3.30
2019-02-07T11:13:20.194Z,3.63
2019-02-07T11:16:09.711Z,3.13
2019-02-07T11:18:56.466Z,3.00
2019-02-07T11:21:43.393Z,3.13
2019-02-07T11:24:23.013Z,3.87
2019-02-07T11:27:08.858Z,3.47
2019-02-07T11:29:55.828Z,3.67
2019-02-07T11:32:36.492Z,3.57
2019-02-07T11:35:14.887Z,3.97
2019-02-07T11:38:00.721Z,3.73
2019-02-07T11:40:41.432Z,3.90
2019-02-07T11:43:40.877Z,3.90
2019-02-07T11:46:26.530Z,5.00
2019-02-07T11:49:12.178Z,4.73
2019-02-07T11:52:16.245Z,5.03
2019-02-07T11:54:58.707Z,5.00
2019-02-07T11:57:45.806Z,5.03
2019-02-07T12:00:36.700Z,4.83
2019-02-07T12:03:23.711Z,4.43
2019-02-07T12:06:05.192Z,4.23
2019-02-07T12:08:57.797Z,3.30
2019-02-07T12:11:54.044Z,3.27
2019-02-07T12:14:44.904Z,6.03
2019-02-07T12:17:31.821Z,7.43
2019-02-07T12:20:17.417Z,11.50
2019-02-07T12:23:07.133Z,9.03
2019-02-07T12:25:48.345Z,6.30
2019-02-07T12:28:31.730Z,4.80
2019-02-07T12:31:18.833Z,6.67
2019-02-07T12:34:04.075Z,6.63
2019-02-07T12:37:06.095Z,6.53
2019-02-07T12:39:51.722Z,6.40
2019-02-07T12:42:47.493Z,6.57
2019-02-07T12:45:46.817Z,6.20
2019-02-07T12:48:33.698Z,5.77
2019-02-07T12:51:19.365Z,4.60
2019-02-07T12:54:04.855Z,3.90
2019-02-07T12:56:41.689Z,4.70
2019-02-07T12:59:31.536Z,4.30
2019-02-07T13:02:17.632Z,4.20
2019-02-07T13:05:03.198Z,4.17
2019-02-07T13:07:48.675Z,3.93
2019-02-07T13:10:35.637Z,4.20
2019-02-07T13:13:35.222Z,4.07
2019-02-07T13:16:23.021Z,4.03
2019-02-07T13:19:22.075Z,3.80
2019-02-07T13:22:24.508Z,5.20
2019-02-07T13:25:09.687Z,4.50
2019-02-07T13:27:59.466Z,5.10
2019-02-07T13:30:46.959Z,5.57
2019-02-07T13:33:36.819Z,4.87
2019-02-07T13:36:23.479Z,4.67
2019-02-07T13:39:10.563Z,4.60
2019-02-07T13:42:03.357Z,4.60
2019-02-07T13:45:08.518Z,4.37
2019-02-07T13:48:13.657Z,3.63
2019-02-07T13:51:00.577Z,3.30
2019-02-07T13:53:47.706Z,3.80
2019-02-07T13:56:40.686Z,3.80
2019-02-07T13:59:33.634Z,3.20
2019-02-07T14:02:23.205Z,3.20
2019-02-07T14:05:04.910Z,3.20
2019-02-07T14:07:57.514Z,2.83
2019-02-07T14:10:41.613Z,2.70
2019-02-07T14:13:28.700Z,3.10
2019-02-07T14:16:18.914Z,3.43
2019-02-07T14:19:11.870Z,3.00
2019-02-07T14:21:54.505Z,2.70
2019-02-07T14:24:47.367Z,3.37
2019-02-07T14:27:49.428Z,4.67
2019-02-07T14:30:42.340Z,4.70
2019-02-07T14:33:28.028Z,3.90
2019-02-07T14:36:18.075Z,3.90
2019-02-07T14:39:04.744Z,3.60
2019-02-07T14:41:57.546Z,5.30
2019-02-07T14:44:45.508Z,5.33
2019-02-07T14:47:12.953Z,4.90
2019-02-07T14:49:40.362Z,5.70
2019-02-07T14:52:08.180Z,5.30
2019-02-07T14:54:35.664Z,3.57
2019-02-07T14:57:03.331Z,3.40
2019-02-07T14:59:30.774Z,3.87
2019-02-07T15:01:58.163Z,3.63
2019-02-07T15:04:25.717Z,3.63
2019-02-07T15:06:53.278Z,4.53
2019-02-07T15:09:21.228Z,4.53
2019-02-07T15:11:48.749Z,3.80
2019-02-07T15:14:16.255Z,3.80
2019-02-07T15:16:43.965Z,4.13
2019-02-07T15:19:11.487Z,4.10
2019-02-07T15:21:39.019Z,4.87
2019-02-07T15:24:08.403Z,5.00
2019-02-07T15:26:35.997Z,6.67
2019-02-07T15:29:03.632Z,7.33
2019-02-07T15:31:31.052Z,4.97
2019-02-07T15:33:58.474Z,4.70
2019-02-07T15:36:25.923Z,4.03
2019-02-07T15:38:54.269Z,4.50
2019-02-07T15:41:21.813Z,4.07
2019-02-07T15:43:49.317Z,4.63
2019-02-07T15:46:16.752Z,5.40
2019-02-07T15:48:44.157Z,5.83
2019-02-07T15:51:11.676Z,4.80
2019-02-07T15:53:39.069Z,4.20
2019-02-07T15:56:06.467Z,4.07
2019-02-07T15:58:53.395Z,3.53
2019-02-07T16:01:30.913Z,3.37
2019-02-07T16:04:09.087Z,2.80
2019-02-07T16:06:37.737Z,5.00
2019-02-07T16:09:07.192Z,4.90
2019-02-07T16:11:34.655Z,6.43
2019-02-07T16:14:02.064Z,5.33
2019-02-07T16:16:29.540Z,4.87
2019-02-07T16:18:56.944Z,4.60
2019-02-07T16:21:24.550Z,4.17
2019-02-07T16:23:52.131Z,4.40
2019-02-07T16:26:19.508Z,4.97
2019-02-07T16:28:46.971Z,5.83
2019-02-07T16:31:14.413Z,6.90
2019-02-07T16:33:41.827Z,8.57
2019-02-07T16:36:09.323Z,8.17
2019-02-07T16:38:36.878Z,8.47
2019-02-07T16:41:04.639Z,7.57
2019-02-07T16:43:32.410Z,7.30
2019-02-07T16:46:00.067Z,6.90
2019-02-07T16:48:27.489Z,7.07
2019-02-07T16:51:00.405Z,5.97
2019-02-07T16:53:24.284Z,7.00
2019-02-07T16:55:51.667Z,6.43
2019-02-07T16:58:19.336Z,5.40
2019-02-07T17:00:46.874Z,5.43
2019-02-07T17:03:14.281Z,5.30
2019-02-07T17:05:41.843Z,4.83
2019-02-07T17:08:09.373Z,4.37
2019-02-07T17:10:37.001Z,4.60
2019-02-07T17:13:06.557Z,5.27
2019-02-07T17:15:34.239Z,5.17
2019-02-07T17:18:01.697Z,5.30
2019-02-07T17:20:29.636Z,5.00
2019-02-07T17:22:57.546Z,5.63
2019-02-07T17:25:25.103Z,5.17
2019-02-07T17:27:52.511Z,5.97
2019-02-07T17:30:20.518Z,5.27
2019-02-07T17:32:48.059Z,5.30
2019-02-07T17:35:16.011Z,6.60
2019-02-07T17:37:43.471Z,5.20
2019-02-07T17:40:14.178Z,4.40
2019-02-07T17:42:41.562Z,5.60
2019-02-07T17:45:11.925Z,5.23
2019-02-07T17:47:39.429Z,4.70
2019-02-07T17:50:13.618Z,4.80
2019-02-07T17:52:41.031Z,4.80
2019-02-07T17:55:11.412Z,4.40
2019-02-07T17:57:38.845Z,4.63
2019-02-07T18:00:19.569Z,4.77
2019-02-07T18:02:47.176Z,5.40
2019-02-07T18:05:14.621Z,5.73
2019-02-07T18:07:42.139Z,6.37
2019-02-07T18:10:09.828Z,5.93
2019-02-07T18:12:37.365Z,5.20
2019-02-07T18:15:05.810Z,4.77
2019-02-07T18:17:33.248Z,4.57
2019-02-07T18:20:00.764Z,4.57
2019-02-07T18:22:28.173Z,3.93
2019-02-07T18:24:55.703Z,3.90
2019-02-07T18:27:23.123Z,4.50
2019-02-07T18:29:50.561Z,3.70
2019-02-07T18:32:18.028Z,6.07
2019-02-07T18:34:45.512Z,6.50
2019-02-07T18:37:14.745Z,6.17
2019-02-07T18:39:42.203Z,7.07
2019-02-07T18:42:09.575Z,7.67
2019-02-07T18:44:36.959Z,7.13
2019-02-07T18:47:04.572Z,6.53
2019-02-07T18:49:32.049Z,6.13
2019-02-07T18:51:59.548Z,5.43
2019-02-07T18:54:27.045Z,5.60
2019-02-07T18:56:54.573Z,5.40
2019-02-07T18:59:22.023Z,6.03
2019-02-07T19:01:49.423Z,5.77
2019-02-07T19:04:16.870Z,5.90
2019-02-07T19:06:44.388Z,6.43
2019-02-07T19:09:11.792Z,4.50
2019-02-07T19:11:39.311Z,4.33
2019-02-07T19:14:06.898Z,5.13
2019-02-07T19:16:34.287Z,4.33
2019-02-07T19:19:01.752Z,4.83
2019-02-07T19:21:29.179Z,4.40
2019-02-07T19:23:56.601Z,6.20
2019-02-07T19:26:24.232Z,6.03
2019-02-07T19:28:51.659Z,6.10
2019-02-07T19:31:19.166Z,6.00
2019-02-07T19:33:46.603Z,5.47
2019-02-07T19:36:14.140Z,5.40
2019-02-07T19:38:41.787Z,4.90
2019-02-07T19:41:09.535Z,4.93
2019-02-07T19:43:37.069Z,4.83
2019-02-07T19:46:04.628Z,4.90
2019-02-07T19:48:32.181Z,4.80
2019-02-07T19:50:59.939Z,4.93
2019-02-07T19:53:27.532Z,5.20
2019-02-07T19:55:55.084Z,5.03
2019-02-07T19:58:22.501Z,5.07
2019-02-07T20:00:50.568Z,4.97
2019-02-07T20:03:18.666Z,5.20
2019-02-07T20:05:46.243Z,7.60
2019-02-07T20:08:13.849Z,9.67
2019-02-07T20:10:41.480Z,9.57
2019-02-07T20:13:09.089Z,9.23
2019-02-07T20:15:38.831Z,8.43
2019-02-07T20:18:08.261Z,22.23
2019-02-07T20:20:35.902Z,23.13
2019-02-07T20:23:03.570Z,14.97
2019-02-07T20:25:31.362Z,14.20
2019-02-07T20:27:59.149Z,11.87
2019-02-07T20:30:31.828Z,11.53
2019-02-07T20:32:59.750Z,9.90
2019-02-07T20:35:27.340Z,9.37
2019-02-07T20:37:54.779Z,9.03
2019-02-07T20:40:23.579Z,8.60
2019-02-07T20:42:51.229Z,9.27
2019-02-07T20:45:19.022Z,9.13
2019-02-07T20:47:46.831Z,9.33
2019-02-07T20:50:17.263Z,8.70
2019-02-07T20:52:44.960Z,8.70
2019-02-07T20:55:12.899Z,9.30
2019-02-07T20:57:40.287Z,9.50
2019-02-07T21:00:18.114Z,8.70
2019-02-07T21:02:45.747Z,8.10
2019-02-07T21:05:13.331Z,7.17
2019-02-07T21:07:40.789Z,7.20
2019-02-07T21:10:10.207Z,6.67
2019-02-07T21:12:37.713Z,5.87
2019-02-07T21:15:08.199Z,5.60
2019-02-07T21:17:36.043Z,6.13
2019-02-07T21:20:06.247Z,6.33
2019-02-07T21:22:34.716Z,5.70
2019-02-07T21:25:02.424Z,6.37
2019-02-07T21:27:30.168Z,6.03
2019-02-07T21:29:57.807Z,5.93
2019-02-07T21:32:25.525Z,6.30
2019-02-07T21:34:53.142Z,7.17
2019-02-07T21:37:20.776Z,6.30
2019-02-07T21:39:48.363Z,6.60
2019-02-07T21:42:16.345Z,8.00
2019-02-07T21:44:44.201Z,8.30
2019-02-07T21:47:12.150Z,9.83
2019-02-07T21:49:39.940Z,8.40
2019-02-07T21:52:07.505Z,9.23
2019-02-07T21:54:35.013Z,8.50
2019-02-07T21:57:02.560Z,9.13
2019-02-07T21:59:30.007Z,9.17
2019-02-07T22:01:57.464Z,10.00
2019-02-07T22:04:24.925Z,8.33
2019-02-07T22:06:52.419Z,9.03
2019-02-07T22:09:19.816Z,8.57
2019-02-07T22:11:47.286Z,8.60
2019-02-07T22:14:14.767Z,8.73
2019-02-07T22:16:42.123Z,8.60
2019-02-07T22:19:09.560Z,8.33
2019-02-07T22:21:37.084Z,8.37
2019-02-07T22:24:05.003Z,8.77
2019-02-07T22:26:32.458Z,7.87
2019-02-07T22:28:59.846Z,8.17
2019-02-07T22:31:27.287Z,7.90
2019-02-07T22:33:54.786Z,8.03
2019-02-07T22:36:22.187Z,7.43
2019-02-07T22:38:49.569Z,7.47
2019-02-07T22:41:17.139Z,7.83
2019-02-07T22:43:44.528Z,7.37
2019-02-07T22:46:11.903Z,7.47
2019-02-07T22:48:39.276Z,7.53
2019-02-07T22:51:06.680Z,7.50
2019-02-07T22:53:34.109Z,7.27
2019-02-07T22:56:01.466Z,6.87
2019-02-07T22:58:28.836Z,6.70
2019-02-07T23:01:38.116Z,7.03
2019-02-07T23:04:07.430Z,7.27
2019-02-07T23:06:34.925Z,7.27
2019-02-07T23:09:04.054Z,6.73
2019-02-07T23:11:31.493Z,6.37
2019-02-07T23:13:58.868Z,7.03
2019-02-07T23:16:26.567Z,6.90
2019-02-07T23:18:54.991Z,6.57
2019-02-07T23:21:22.859Z,6.07
2019-02-07T23:23:50.222Z,6.13
2019-02-07T23:26:17.668Z,6.87
2019-02-07T23:28:45.087Z,6.63
2019-02-07T23:31:12.468Z,7.00
2019-02-07T23:33:40.110Z,6.50
2019-02-07T23:36:10.667Z,6.70
2019-02-07T23:38:38.241Z,8.23
2019-02-07T23:41:07.427Z,8.53
2019-02-07T23:43:34.965Z,8.70
2019-02-07T23:46:02.587Z,9.17
2019-02-07T23:48:29.950Z,9.30
2019-02-07T23:50:57.373Z,9.00
2019-02-07T23:53:24.800Z,9.10
2019-02-07T23:55:52.198Z,10.17
2019-02-07T23:58:19.590Z,9.87
